Aérodrome :
LOGIN :

S'inscrire | Disclaimer

   EN    FR    IT 

 










Légende :    VFR   VFR Marginal   IFR   IFR Intensif   IFR Très Intensif
Visi : 
Plafond : 
>= 8 km
>= 3000ft
5 à 8 km
1000 à 3000 ft
1500m à 5 km
500 à 1000 ft
800 à 1500m
200 à 500 ft
< 800m
< 200 ft
Symboles :   Orages  Brouillard  Fortes neiges  Fortes précipitations  Vent > 20 kt
SIGMETs :   Divers  Orages  Givrage  Turbulence  Onde Orograph.  Cendres Volcan.






- Altitude de l'aérodrome : 17 ft
- Code IATA : KLR


ESMQ - Kalmar

DERNIER METAR :
  • 251220Z 24005KT 9999 FEW008 SCT011 BKN015 05/04 Q0986

METARs EXPIRÉS :
  • 251150Z 21005KT 9999 FEW005 SCT008 BKN010 04/04 Q0987
  • 251120Z VRB02KT 9999 FEW003 SCT005 BKN009 04/04 Q0987
  • 251050Z 07003KT 040V120 9999 BKN004 OVC006 04/03 Q0987
  • 251020Z 06006KT 9999 OVC005 03/03 Q0987
  • 250950Z 08007KT 9999 -RA BKN005 OVC008 03/03 Q0987

TAF TAF ESMQ
Valide du 25 à 12h jusqu'au 25 à 21h UTC


251130Z 2512/2521 20010G20KT 9999 BKN011
TEMPO 2512/2513 SHRA BKN004 BKN020CB
TEMPO 2513/2518 SHRA BKN009 BKN020CB



MET'MAP, la Météo Aéronautique d'un coup d'oeil ! - Copyright ORBIFLY Décembre 2007 - Disclaimer

ORBIFLY MET'MAP TEAM :

Programmation & Développement : Alexandra Zaïnal
Sur une idée originale de : Baudouin d'Aumeries
Assistance à la programmation : Marc-Olivier Méhu
Soutien technique & logistique : Manuel Goepfert

Contact : metmap@orbifly.com




SOURCES & CREDITS :

   NOAA